Time;durP1;ratioP1;P1;durP2;ratioP2;P2;SDS_P1;SDS_P2;PMS_P1;PMS_P2;Temp;Humidity;BMP_temperature;BMP_pressure;BME280_temperature;BME280_humidity;BME280_pressure;Samples;Min_cycle;Max_cycle;Signal;HPM_P1;HPM_P2
2023/05/15 00:01:36;;;;;;;12.82;7.50;;;;;;;;;;5030662;28;20047;-76
2023/05/15 00:04:03;;;;;;;13.40;7.88;;;;;;;;;;5029193;28;20034;-77
2023/05/15 00:06:28;;;;;;;12.18;7.65;;;;;;;;;;5030083;28;20046;-78
2023/05/15 00:08:53;;;;;;;12.82;8.20;;;;;;;;;;5028036;28;20125;-79
2023/05/15 00:11:20;;;;;;;13.20;8.73;;;;;;;;;;5022444;28;20026;-78
2023/05/15 00:13:45;;;;;;;12.40;7.55;;;;;;;;;;5023721;28;20371;-79
2023/05/15 00:16:10;;;;;;;11.93;8.10;;;;;;;;;;5022358;28;20041;-79
2023/05/15 00:18:36;;;;;;;10.55;7.55;;;;;;;;;;5024116;28;20022;-79
2023/05/15 00:21:01;;;;;;;15.07;8.95;;;;;;;;;;5023988;28;20569;-79
2023/05/15 00:23:27;;;;;;;11.88;7.32;;;;;;;;;;5025648;28;20040;-78
2023/05/15 00:25:52;;;;;;;12.88;8.63;;;;;;;;;;5023770;28;20040;-79
2023/05/15 00:28:17;;;;;;;12.75;8.40;;;;;;;;;;5021243;28;20083;-78
2023/05/15 00:30:43;;;;;;;12.35;8.30;;;;;;;;;;5022704;28;20029;-79
2023/05/15 00:33:08;;;;;;;12.57;7.85;;;;;;;;;;5025897;28;20025;-79
2023/05/15 00:35:33;;;;;;;17.42;8.90;;;;;;;;;;5021001;28;20118;-79
2023/05/15 00:37:58;;;;;;;13.85;9.15;;;;;;;;;;5039381;28;20117;-80
2023/05/15 00:40:24;;;;;;;15.93;9.32;;;;;;;;;;5023192;28;20079;-79
2023/05/15 00:42:51;;;;;;;14.77;9.02;;;;;;;;;;5022794;28;20042;-81
2023/05/15 00:45:18;;;;;;;16.20;9.27;;;;;;;;;;5035931;28;20026;-78
2023/05/15 00:47:44;;;;;;;14.27;8.73;;;;;;;;;;5026298;28;20025;-80
2023/05/15 00:50:10;;;;;;;21.13;11.30;;;;;;;;;;5023954;28;20622;-81
2023/05/15 00:52:36;;;;;;;14.23;9.43;;;;;;;;;;5037205;28;20125;-81
2023/05/15 00:55:02;;;;;;;16.67;10.80;;;;;;;;;;5024162;28;20063;-81
2023/05/15 00:57:29;;;;;;;16.02;9.07;;;;;;;;;;5024291;28;20053;-81
2023/05/15 00:59:56;;;;;;;14.95;10.18;;;;;;;;;;5040332;28;20025;-81
2023/05/15 01:02:21;;;;;;;17.27;10.13;;;;;;;;;;5023674;28;20088;-81
2023/05/15 01:04:47;;;;;;;17.70;10.88;;;;;;;;;;5021989;28;20034;-81
2023/05/15 01:07:13;;;;;;;19.27;10.75;;;;;;;;;;5028211;28;20049;-81
2023/05/15 01:09:42;;;;;;;16.35;10.73;;;;;;;;;;5054592;28;20034;-80
2023/05/15 01:12:08;;;;;;;21.42;11.55;;;;;;;;;;5043059;28;20029;-80
2023/05/15 01:14:33;;;;;;;17.13;10.45;;;;;;;;;;5045075;28;20025;-80
2023/05/15 01:16:59;;;;;;;17.98;9.70;;;;;;;;;;5042359;28;20026;-80
2023/05/15 01:19:24;;;;;;;18.17;10.35;;;;;;;;;;5043745;28;20038;-80
2023/05/15 01:22:19;;;;;;;16.35;10.30;;;;;;;;;;5057382;28;20029;-80
2023/05/15 01:25:12;;;;;;;15.73;9.82;;;;;;;;;;5054733;28;20030;-78
2023/05/15 01:27:45;;;;;;;14.43;9.40;;;;;;;;;;5040886;28;20033;-78
2023/05/15 01:30:18;;;;;;;16.20;9.85;;;;;;;;;;5038239;28;20082;-78
2023/05/15 01:32:43;;;;;;;16.23;9.80;;;;;;;;;;5030514;28;20084;-79
2023/05/15 01:35:15;;;;;;;13.32;9.60;;;;;;;;;;5040638;28;20072;-80
2023/05/15 01:37:44;;;;;;;15.55;9.93;;;;;;;;;;5021918;28;20030;-80
2023/05/15 01:40:13;;;;;;;17.85;10.38;;;;;;;;;;5038485;28;20412;-79
2023/05/15 01:42:43;;;;;;;17.83;10.35;;;;;;;;;;5023620;28;20034;-80
2023/05/15 01:45:10;;;;;;;17.63;10.63;;;;;;;;;;5023810;28;20022;-79
2023/05/15 01:47:46;;;;;;;19.67;11.82;;;;;;;;;;5017726;28;20026;-80
2023/05/15 01:50:14;;;;;;;15.32;10.13;;;;;;;;;;5022366;28;20133;-79
2023/05/15 01:52:43;;;;;;;21.92;12.60;;;;;;;;;;5023135;28;20125;-80
2023/05/15 01:55:09;;;;;;;21.90;12.18;;;;;;;;;;5018535;28;20096;-79
2023/05/15 01:57:36;;;;;;;23.67;12.23;;;;;;;;;;5022996;28;20041;-80
2023/05/15 02:00:02;;;;;;;28.67;12.65;;;;;;;;;;5019003;28;20030;-79
2023/05/15 02:02:29;;;;;;;21.70;12.95;;;;;;;;;;5020747;28;20384;-79
2023/05/15 02:04:56;;;;;;;24.25;13.30;;;;;;;;;;5044536;28;20049;-79
2023/05/15 02:07:22;;;;;;;23.40;12.63;;;;;;;;;;5027023;28;20044;-82
2023/05/15 02:09:50;;;;;;;25.35;12.70;;;;;;;;;;5027511;28;20149;-80
2023/05/15 02:12:15;;;;;;;21.70;12.85;;;;;;;;;;5040983;28;20022;-80
2023/05/15 02:14:42;;;;;;;26.63;13.95;;;;;;;;;;5026941;28;20029;-79
2023/05/15 02:17:07;;;;;;;21.00;13.38;;;;;;;;;;5042238;28;20077;-79
2023/05/15 02:19:33;;;;;;;21.65;12.38;;;;;;;;;;5025929;28;20033;-79
2023/05/15 02:21:58;;;;;;;26.13;14.98;;;;;;;;;;5031270;28;20081;-80
2023/05/15 02:24:23;;;;;;;27.20;13.88;;;;;;;;;;5025894;28;20034;-80
2023/05/15 02:27:20;;;;;;;23.17;14.10;;;;;;;;;;5040093;28;20025;-79
2023/05/15 02:30:05;;;;;;;23.45;12.85;;;;;;;;;;5024846;28;20522;-79
2023/05/15 02:32:45;;;;;;;23.15;13.38;;;;;;;;;;5027911;28;20500;-81
2023/05/15 02:35:32;;;;;;;28.20;15.18;;;;;;;;;;5046806;28;20029;-80
2023/05/15 02:38:05;;;;;;;29.30;14.60;;;;;;;;;;5035529;28;20080;-81
2023/05/15 02:40:33;;;;;;;26.88;13.63;;;;;;;;;;5044759;28;20034;-81
2023/05/15 02:42:59;;;;;;;22.02;13.02;;;;;;;;;;5027293;28;20037;-81
2023/05/15 02:45:24;;;;;;;23.25;14.43;;;;;;;;;;5020484;28;20489;-81
2023/05/15 02:47:51;;;;;;;28.63;15.23;;;;;;;;;;5028684;28;20030;-81
2023/05/15 02:50:17;;;;;;;30.77;14.95;;;;;;;;;;5041259;28;20030;-81
2023/05/15 02:52:42;;;;;;;29.58;15.18;;;;;;;;;;5025623;28;20064;-80
2023/05/15 02:55:08;;;;;;;29.98;16.35;;;;;;;;;;5027765;28;20193;-80
2023/05/15 02:57:33;;;;;;;34.63;15.10;;;;;;;;;;5042885;28;20116;-80
2023/05/15 02:59:59;;;;;;;22.45;13.13;;;;;;;;;;5028871;28;20026;-81
2023/05/15 03:02:24;;;;;;;29.08;15.75;;;;;;;;;;5028762;28;20041;-81
2023/05/15 03:04:50;;;;;;;27.00;14.75;;;;;;;;;;5024874;28;20449;-81
2023/05/15 03:07:15;;;;;;;27.27;14.40;;;;;;;;;;5019872;28;20124;-81
2023/05/15 03:09:41;;;;;;;24.17;14.52;;;;;;;;;;5042008;28;20377;-81
2023/05/15 03:12:07;;;;;;;24.52;14.13;;;;;;;;;;5022787;28;20040;-82
2023/05/15 03:14:32;;;;;;;26.60;15.02;;;;;;;;;;5047389;28;20021;-81
2023/05/15 03:16:57;;;;;;;23.38;14.32;;;;;;;;;;5045241;28;20026;-81
2023/05/15 03:19:23;;;;;;;27.73;14.85;;;;;;;;;;5023144;28;20025;-81
2023/05/15 03:21:48;;;;;;;27.58;14.05;;;;;;;;;;5022199;28;20030;-81
2023/05/15 03:24:13;;;;;;;20.20;12.35;;;;;;;;;;5022446;28;20026;-81
2023/05/15 03:26:41;;;;;;;24.58;13.38;;;;;;;;;;5041941;28;20034;-81
2023/05/15 03:29:06;;;;;;;20.98;13.13;;;;;;;;;;5024140;28;20030;-81
2023/05/15 03:31:31;;;;;;;21.50;12.10;;;;;;;;;;5043625;28;20055;-81
2023/05/15 03:33:57;;;;;;;17.65;11.30;;;;;;;;;;5013710;28;20034;-81
2023/05/15 03:36:22;;;;;;;19.85;12.60;;;;;;;;;;5041148;28;20045;-80
2023/05/15 03:38:47;;;;;;;19.70;11.43;;;;;;;;;;5039007;28;20021;-81
2023/05/15 03:41:13;;;;;;;18.95;11.63;;;;;;;;;;5023077;28;20163;-81
2023/05/15 03:43:38;;;;;;;18.80;11.30;;;;;;;;;;5025412;28;20517;-81
2023/05/15 03:46:04;;;;;;;18.45;10.88;;;;;;;;;;5022855;28;20033;-81
2023/05/15 03:48:29;;;;;;;16.60;10.57;;;;;;;;;;5024032;28;21093;-81
2023/05/15 03:50:55;;;;;;;16.15;10.52;;;;;;;;;;5043994;28;20033;-80
2023/05/15 03:53:20;;;;;;;16.05;10.43;;;;;;;;;;5026953;28;20029;-82
2023/05/15 03:55:45;;;;;;;17.42;10.60;;;;;;;;;;5040972;28;20040;-82
2023/05/15 03:58:11;;;;;;;17.27;10.73;;;;;;;;;;5027770;28;20412;-80
2023/05/15 04:00:36;;;;;;;16.50;10.55;;;;;;;;;;5041536;28;20068;-80
2023/05/15 04:03:01;;;;;;;14.80;9.13;;;;;;;;;;5042499;28;20019;-80
2023/05/15 04:05:26;;;;;;;16.58;10.55;;;;;;;;;;5023745;28;20056;-80
2023/05/15 04:07:52;;;;;;;15.73;10.02;;;;;;;;;;5042498;28;20036;-80
2023/05/15 04:10:18;;;;;;;12.50;8.30;;;;;;;;;;5040029;28;20049;-80
2023/05/15 04:12:43;;;;;;;15.10;8.52;;;;;;;;;;5037010;28;20072;-80
2023/05/15 04:15:22;;;;;;;13.98;9.20;;;;;;;;;;5023700;28;20025;-80
2023/05/15 04:17:50;;;;;;;14.27;9.50;;;;;;;;;;5042008;28;20022;-80
2023/05/15 04:20:18;;;;;;;12.10;8.57;;;;;;;;;;5027285;28;20034;-80
2023/05/15 04:22:44;;;;;;;15.52;9.80;;;;;;;;;;5025838;28;20033;-80
2023/05/15 04:25:10;;;;;;;15.35;9.60;;;;;;;;;;5034134;28;20030;-80
2023/05/15 04:27:37;;;;;;;14.30;10.25;;;;;;;;;;5039213;28;20033;-80
2023/05/15 04:30:03;;;;;;;15.93;9.80;;;;;;;;;;5024084;28;20030;-79
2023/05/15 04:32:29;;;;;;;12.45;8.02;;;;;;;;;;5026697;28;20057;-80
2023/05/15 04:34:55;;;;;;;13.25;9.70;;;;;;;;;;5023372;28;20037;-80
2023/05/15 04:37:20;;;;;;;14.02;9.88;;;;;;;;;;5043873;28;20036;-80
2023/05/15 04:39:45;;;;;;;10.52;7.93;;;;;;;;;;5020509;28;20026;-80
2023/05/15 04:42:11;;;;;;;14.05;8.68;;;;;;;;;;5041157;28;20021;-80
2023/05/15 04:44:36;;;;;;;13.95;9.43;;;;;;;;;;5027609;28;20061;-80
2023/05/15 04:47:02;;;;;;;13.13;9.23;;;;;;;;;;5024696;28;20034;-80
2023/05/15 04:49:27;;;;;;;15.85;9.75;;;;;;;;;;5039575;28;20051;-80
2023/05/15 04:51:52;;;;;;;11.32;7.43;;;;;;;;;;5042956;28;20029;-80
2023/05/15 04:54:17;;;;;;;14.35;9.55;;;;;;;;;;5026968;28;20029;-80
2023/05/15 04:56:44;;;;;;;14.45;9.23;;;;;;;;;;5026329;28;20055;-82
2023/05/15 04:59:10;;;;;;;14.18;8.75;;;;;;;;;;5044483;28;20065;-81
2023/05/15 05:01:36;;;;;;;14.25;8.63;;;;;;;;;;5028807;28;20033;-81
2023/05/15 05:04:01;;;;;;;14.18;9.13;;;;;;;;;;5026144;28;20054;-81
2023/05/15 05:06:26;;;;;;;18.30;10.18;;;;;;;;;;5044261;28;20115;-81
2023/05/15 05:08:52;;;;;;;16.33;9.88;;;;;;;;;;5027164;28;20049;-82
2023/05/15 05:11:17;;;;;;;17.10;11.00;;;;;;;;;;5025370;28;20408;-81
2023/05/15 05:13:42;;;;;;;16.33;10.65;;;;;;;;;;5025425;28;20056;-81
2023/05/15 05:16:08;;;;;;;17.25;11.15;;;;;;;;;;5026971;28;20029;-81
2023/05/15 05:18:33;;;;;;;18.00;10.30;;;;;;;;;;5026681;28;20030;-81
2023/05/15 05:21:02;;;;;;;14.50;9.25;;;;;;;;;;5027010;28;20025;-81
2023/05/15 05:23:30;;;;;;;14.15;8.85;;;;;;;;;;5032457;28;20544;-82
2023/05/15 05:25:56;;;;;;;16.42;8.73;;;;;;;;;;5027231;28;20595;-81
2023/05/15 05:28:21;;;;;;;18.83;9.48;;;;;;;;;;5023107;28;20060;-81
2023/05/15 05:30:47;;;;;;;14.63;9.73;;;;;;;;;;5039543;28;20109;-81
2023/05/15 05:33:13;;;;;;;16.42;10.60;;;;;;;;;;5023714;28;20021;-81
2023/05/15 05:35:38;;;;;;;13.55;9.15;;;;;;;;;;5041554;28;20036;-82
2023/05/15 05:38:03;;;;;;;23.55;10.60;;;;;;;;;;5023628;28;20396;-79
2023/05/15 05:40:29;;;;;;;13.35;8.98;;;;;;;;;;5041456;28;20128;-79
2023/05/15 05:42:58;;;;;;;12.20;8.05;;;;;;;;;;5024623;28;20025;-80
2023/05/15 05:45:24;;;;;;;11.32;8.40;;;;;;;;;;5019786;28;20048;-80
2023/05/15 05:47:49;;;;;;;15.93;10.10;;;;;;;;;;5021905;28;20121;-80
2023/05/15 05:50:14;;;;;;;13.18;9.00;;;;;;;;;;5024180;28;20099;-79
2023/05/15 05:52:40;;;;;;;11.57;7.75;;;;;;;;;;5038852;28;20029;-79
2023/05/15 05:55:05;;;;;;;12.48;8.77;;;;;;;;;;5038726;28;20034;-82
2023/05/15 05:57:31;;;;;;;11.10;7.40;;;;;;;;;;5023640;28;20041;-80
2023/05/15 05:59:56;;;;;;;13.07;8.57;;;;;;;;;;5037869;28;20038;-79
2023/05/15 06:02:21;;;;;;;11.18;6.97;;;;;;;;;;5019877;28;20114;-81
2023/05/15 06:04:47;;;;;;;12.75;8.18;;;;;;;;;;4999037;28;20404;-82
2023/05/15 06:07:12;;;;;;;12.10;7.97;;;;;;;;;;4998634;28;20524;-81
2023/05/15 06:09:37;;;;;;;11.82;7.10;;;;;;;;;;4997484;28;20038;-82
2023/05/15 06:12:03;;;;;;;8.10;6.18;;;;;;;;;;4997300;28;20026;-81
2023/05/15 06:14:29;;;;;;;11.27;7.20;;;;;;;;;;4998106;28;20028;-82
2023/05/15 06:16:55;;;;;;;9.85;6.75;;;;;;;;;;4998192;28;20106;-81
2023/05/15 06:19:20;;;;;;;9.77;6.13;;;;;;;;;;4997257;28;20030;-82
2023/05/15 06:21:46;;;;;;;6.22;5.28;;;;;;;;;;4996944;28;20086;-82
2023/05/15 06:24:11;;;;;;;6.75;5.13;;;;;;;;;;4997186;28;20030;-81
2023/05/15 06:26:37;;;;;;;7.90;5.47;;;;;;;;;;4999568;28;20026;-82
2023/05/15 06:29:02;;;;;;;6.85;5.78;;;;;;;;;;4999145;28;20042;-83
2023/05/15 06:31:28;;;;;;;8.93;5.78;;;;;;;;;;4997320;28;20103;-81
2023/05/15 06:33:53;;;;;;;7.35;4.72;;;;;;;;;;4996196;28;20038;-81
2023/05/15 06:36:19;;;;;;;7.45;5.90;;;;;;;;;;4999117;28;20481;-82
2023/05/15 06:38:44;;;;;;;7.15;5.13;;;;;;;;;;4998059;28;20030;-83
2023/05/15 06:41:09;;;;;;;6.88;5.03;;;;;;;;;;4998510;28;20049;-82
2023/05/15 06:43:35;;;;;;;6.65;5.25;;;;;;;;;;4996864;28;20030;-82
2023/05/15 06:46:00;;;;;;;7.72;6.03;;;;;;;;;;4996735;28;20027;-82
2023/05/15 06:48:25;;;;;;;7.07;5.95;;;;;;;;;;4995929;28;20031;-82
2023/05/15 06:50:51;;;;;;;7.65;6.57;;;;;;;;;;4998336;28;20026;-82
2023/05/15 06:53:17;;;;;;;7.90;5.93;;;;;;;;;;5003403;28;20030;-80
2023/05/15 06:55:42;;;;;;;10.77;6.07;;;;;;;;;;5008679;28;20065;-80
2023/05/15 06:58:08;;;;;;;8.63;6.57;;;;;;;;;;5000325;28;20036;-83
2023/05/15 07:00:33;;;;;;;9.68;6.88;;;;;;;;;;5017208;28;20054;-83
2023/05/15 07:02:58;;;;;;;9.35;6.32;;;;;;;;;;5017301;28;20342;-82
2023/05/15 07:05:24;;;;;;;12.32;7.38;;;;;;;;;;5015508;28;20027;-83
2023/05/15 07:07:49;;;;;;;8.68;6.40;;;;;;;;;;5016361;28;20104;-83
2023/05/15 07:10:14;;;;;;;10.68;6.95;;;;;;;;;;5016469;28;20010;-83
2023/05/15 07:12:39;;;;;;;13.95;6.47;;;;;;;;;;5001569;28;20035;-83
2023/05/15 07:15:05;;;;;;;8.48;6.35;;;;;;;;;;5015730;28;20030;-83
2023/05/15 07:17:32;;;;;;;8.10;6.20;;;;;;;;;;5015691;28;20053;-82
2023/05/15 07:19:57;;;;;;;16.23;7.75;;;;;;;;;;4991920;28;20038;-82
2023/05/15 07:22:26;;;;;;;8.20;6.63;;;;;;;;;;5000674;28;20039;-83
2023/05/15 07:24:51;;;;;;;16.33;6.68;;;;;;;;;;5000596;28;20058;-83
2023/05/15 07:27:16;;;;;;;12.23;6.35;;;;;;;;;;5000340;28;20057;-83
2023/05/15 07:29:41;;;;;;;10.73;6.45;;;;;;;;;;5007252;28;20029;-81
2023/05/15 07:32:07;;;;;;;9.88;6.22;;;;;;;;;;5019313;28;20399;-81
2023/05/15 07:34:32;;;;;;;8.27;6.00;;;;;;;;;;5036284;28;20061;-81
2023/05/15 07:36:57;;;;;;;10.52;6.30;;;;;;;;;;5035795;28;20022;-80
2023/05/15 07:39:23;;;;;;;6.88;5.72;;;;;;;;;;5020300;28;20101;-81
2023/05/15 07:41:48;;;;;;;8.05;6.15;;;;;;;;;;5036376;28;20077;-80
2023/05/15 07:44:13;;;;;;;7.78;6.65;;;;;;;;;;5035684;28;20034;-81
2023/05/15 07:46:38;;;;;;;9.07;6.75;;;;;;;;;;5024115;28;20049;-80
2023/05/15 07:49:04;;;;;;;7.95;6.15;;;;;;;;;;5039285;28;20038;-80
2023/05/15 07:51:29;;;;;;;10.88;6.65;;;;;;;;;;5021942;28;20026;-81
2023/05/15 07:53:54;;;;;;;11.52;6.93;;;;;;;;;;5020565;28;20469;-83
2023/05/15 07:56:20;;;;;;;14.02;7.15;;;;;;;;;;5018805;28;20125;-82
2023/05/15 07:58:45;;;;;;;12.48;7.10;;;;;;;;;;5020387;28;20034;-83
2023/05/15 08:01:11;;;;;;;9.65;6.65;;;;;;;;;;5016513;28;20034;-83
2023/05/15 08:03:36;;;;;;;9.85;7.07;;;;;;;;;;4998998;28;20050;-83
2023/05/15 08:06:01;;;;;;;9.20;6.95;;;;;;;;;;5027713;28;20021;-82
2023/05/15 08:08:27;;;;;;;9.00;6.82;;;;;;;;;;5056055;28;20045;-82
2023/05/15 08:10:52;;;;;;;10.80;7.15;;;;;;;;;;5055998;28;20045;-81
2023/05/15 08:13:17;;;;;;;11.68;7.40;;;;;;;;;;5041415;28;20022;-82
2023/05/15 08:15:43;;;;;;;10.00;6.70;;;;;;;;;;5033104;28;20026;-81
2023/05/15 08:18:09;;;;;;;10.57;6.53;;;;;;;;;;5020261;28;20033;-82
2023/05/15 08:20:35;;;;;;;8.65;6.30;;;;;;;;;;5019407;28;20101;-82
2023/05/15 08:23:00;;;;;;;9.50;6.47;;;;;;;;;;5033194;28;20038;-81
2023/05/15 08:25:25;;;;;;;8.27;6.78;;;;;;;;;;5021383;28;20045;-83
2023/05/15 08:27:50;;;;;;;10.50;7.25;;;;;;;;;;5038390;28;20519;-82
2023/05/15 08:30:16;;;;;;;10.93;7.40;;;;;;;;;;5034116;28;20121;-83
2023/05/15 08:32:44;;;;;;;10.48;8.00;;;;;;;;;;5039261;28;20543;-82
2023/05/15 08:35:10;;;;;;;9.95;7.72;;;;;;;;;;5036521;28;20291;-83
2023/05/15 08:37:35;;;;;;;12.93;8.48;;;;;;;;;;5026094;28;20094;-82
2023/05/15 08:40:01;;;;;;;12.90;8.77;;;;;;;;;;5041246;28;20442;-83
2023/05/15 08:42:39;;;;;;;11.32;8.18;;;;;;;;;;5027218;28;20037;-83
2023/05/15 08:45:06;;;;;;;11.50;8.13;;;;;;;;;;5036906;28;20500;-82
2023/05/15 08:47:37;;;;;;;10.18;7.93;;;;;;;;;;5019727;28;20033;-82
2023/05/15 08:50:07;;;;;;;10.38;7.70;;;;;;;;;;5039760;28;20068;-82
2023/05/15 08:52:33;;;;;;;14.43;7.43;;;;;;;;;;5014625;28;20049;-83
2023/05/15 08:54:59;;;;;;;9.43;5.63;;;;;;;;;;5020833;28;20030;-82
2023/05/15 08:57:26;;;;;;;9.25;6.88;;;;;;;;;;5027658;28;20038;-81
2023/05/15 08:59:53;;;;;;;8.05;6.28;;;;;;;;;;5029265;28;20040;-82
2023/05/15 09:02:19;;;;;;;8.23;6.15;;;;;;;;;;5038812;28;20034;-82
2023/05/15 09:04:45;;;;;;;7.53;5.72;;;;;;;;;;5027184;28;20072;-80
2023/05/15 09:07:10;;;;;;;7.75;5.72;;;;;;;;;;5021980;28;20042;-82
2023/05/15 09:09:36;;;;;;;7.25;5.68;;;;;;;;;;5027094;28;20033;-82
2023/05/15 09:12:03;;;;;;;9.18;6.43;;;;;;;;;;5039284;28;20025;-83
2023/05/15 09:14:28;;;;;;;8.23;6.20;;;;;;;;;;5033539;28;20038;-82
2023/05/15 09:16:54;;;;;;;7.65;6.18;;;;;;;;;;5027534;28;20057;-82
2023/05/15 09:19:21;;;;;;;7.72;5.68;;;;;;;;;;5029952;28;20036;-80
2023/05/15 09:21:47;;;;;;;6.90;4.80;;;;;;;;;;5035191;28;20025;-81
2023/05/15 09:24:18;;;;;;;7.78;5.90;;;;;;;;;;5010946;28;20026;-82
2023/05/15 09:26:46;;;;;;;5.97;5.35;;;;;;;;;;5031597;28;20045;-81
2023/05/15 09:29:16;;;;;;;7.63;5.60;;;;;;;;;;5030486;28;20161;-82
2023/05/15 09:31:45;;;;;;;5.22;4.60;;;;;;;;;;4999122;28;20062;-82
2023/05/15 09:34:10;;;;;;;6.07;5.20;;;;;;;;;;5013989;28;20034;-82
2023/05/15 09:36:41;;;;;;;6.40;5.57;;;;;;;;;;5028516;28;20114;-81
2023/05/15 09:39:07;;;;;;;7.13;5.38;;;;;;;;;;5033559;28;20033;-82
2023/05/15 09:41:33;;;;;;;5.45;4.65;;;;;;;;;;5033913;28;20036;-82
2023/05/15 09:43:58;;;;;;;4.72;4.20;;;;;;;;;;5034940;28;20034;-83
2023/05/15 09:46:24;;;;;;;5.60;4.38;;;;;;;;;;5034832;28;20265;-81
2023/05/15 09:48:53;;;;;;;4.93;3.88;;;;;;;;;;5009979;28;20046;-81
2023/05/15 09:51:19;;;;;;;11.18;3.85;;;;;;;;;;4999358;28;20048;-82
2023/05/15 09:53:52;;;;;;;3.80;3.45;;;;;;;;;;5009271;28;20112;-82
2023/05/15 09:56:18;;;;;;;5.05;3.42;;;;;;;;;;5034572;28;20030;-82
2023/05/15 09:58:57;;;;;;;4.72;3.10;;;;;;;;;;5018399;28;20492;-83
2023/05/15 10:01:23;;;;;;;2.80;2.60;;;;;;;;;;5037093;28;20038;-82
2023/05/15 10:04:05;;;;;;;2.85;2.58;;;;;;;;;;5009496;28;20038;-82
2023/05/15 10:06:35;;;;;;;3.75;2.53;;;;;;;;;;5010844;28;20508;-83
2023/05/15 10:09:02;;;;;;;2.60;2.40;;;;;;;;;;5023884;28;20029;-83
2023/05/15 10:11:29;;;;;;;2.65;2.45;;;;;;;;;;5034859;28;20038;-82
2023/05/15 10:13:55;;;;;;;2.78;2.58;;;;;;;;;;5028579;28;20023;-81
2023/05/15 10:16:21;;;;;;;2.08;1.98;;;;;;;;;;5029321;28;20110;-82
2023/05/15 10:18:48;;;;;;;2.67;2.38;;;;;;;;;;5022198;28;20030;-82
2023/05/15 10:21:17;;;;;;;2.58;2.38;;;;;;;;;;5005821;28;20065;-82
2023/05/15 10:23:42;;;;;;;2.53;2.33;;;;;;;;;;4997270;28;20026;-82
2023/05/15 10:26:17;;;;;;;3.67;2.40;;;;;;;;;;4998998;28;20041;-83
2023/05/15 10:28:45;;;;;;;2.90;2.67;;;;;;;;;;5001534;28;20058;-83
2023/05/15 10:31:11;;;;;;;6.00;2.80;;;;;;;;;;5015669;28;20034;-82
2023/05/15 10:33:37;;;;;;;2.50;2.30;;;;;;;;;;5057762;28;20036;-83
2023/05/15 10:36:04;;;;;;;3.92;2.83;;;;;;;;;;5033378;28;20026;-82
2023/05/15 10:38:30;;;;;;;3.13;2.83;;;;;;;;;;5043553;28;20034;-82
2023/05/15 10:40:56;;;;;;;2.90;2.70;;;;;;;;;;5020849;28;20576;-81
2023/05/15 10:43:23;;;;;;;4.93;2.55;;;;;;;;;;5008023;28;20045;-81
2023/05/15 10:45:51;;;;;;;2.40;2.20;;;;;;;;;;5001113;28;20459;-83
2023/05/15 10:48:17;;;;;;;3.00;2.50;;;;;;;;;;5001356;28;20018;-82
2023/05/15 10:50:43;;;;;;;2.75;2.55;;;;;;;;;;5001827;28;20038;-82
2023/05/15 10:53:09;;;;;;;2.60;2.40;;;;;;;;;;5012073;28;20029;-81
2023/05/15 10:55:35;;;;;;;3.42;2.40;;;;;;;;;;5001090;28;20031;-81
2023/05/15 10:58:01;;;;;;;3.85;2.42;;;;;;;;;;5000795;28;20061;-83
2023/05/15 11:00:29;;;;;;;2.95;2.50;;;;;;;;;;5026580;28;20033;-83
2023/05/15 11:02:57;;;;;;;7.00;2.78;;;;;;;;;;5022301;28;20096;-83
2023/05/15 11:05:23;;;;;;;2.30;2.10;;;;;;;;;;5003942;28;20161;-83
2023/05/15 11:08:17;;;;;;;2.65;2.45;;;;;;;;;;5012971;28;20111;-83
2023/05/15 11:10:42;;;;;;;3.72;2.30;;;;;;;;;;5022257;28;20084;-83
2023/05/15 11:13:07;;;;;;;4.53;2.40;;;;;;;;;;5031411;28;20022;-81
2023/05/15 11:15:46;;;;;;;2.70;2.50;;;;;;;;;;5052514;28;20058;-81
2023/05/15 11:18:12;;;;;;;3.22;2.63;;;;;;;;;;5036078;28;20041;-82
2023/05/15 11:20:39;;;;;;;9.75;2.53;;;;;;;;;;5038348;28;20041;-83
2023/05/15 11:23:05;;;;;;;2.88;2.20;;;;;;;;;;5010826;28;20061;-83
2023/05/15 11:25:31;;;;;;;4.68;2.58;;;;;;;;;;5035724;28;20080;-83
2023/05/15 11:27:57;;;;;;;3.40;2.28;;;;;;;;;;5031432;28;20033;-83
2023/05/15 11:30:35;;;;;;;2.72;2.40;;;;;;;;;;5009036;28;20045;-82
2023/05/15 11:33:09;;;;;;;2.85;2.40;;;;;;;;;;5012015;28;20036;-83
2023/05/15 11:35:46;;;;;;;2.70;2.38;;;;;;;;;;5014489;28;20050;-83
2023/05/15 11:38:14;;;;;;;3.03;2.78;;;;;;;;;;5045805;28;20504;-83
2023/05/15 11:40:51;;;;;;;5.57;2.63;;;;;;;;;;5025027;28;20056;-83
2023/05/15 11:43:30;;;;;;;2.85;2.50;;;;;;;;;;5033450;28;20535;-83
2023/05/15 11:46:01;;;;;;;4.97;2.85;;;;;;;;;;5016985;28;20041;-83
2023/05/15 11:48:32;;;;;;;3.55;2.63;;;;;;;;;;5021911;28;20038;-82
2023/05/15 11:50:57;;;;;;;3.22;2.92;;;;;;;;;;5034270;28;20022;-83
2023/05/15 11:53:23;;;;;;;2.75;2.38;;;;;;;;;;5032518;28;20147;-82
2023/05/15 11:55:53;;;;;;;4.00;3.55;;;;;;;;;;5036086;28;20040;-83
2023/05/15 11:58:20;;;;;;;5.63;4.22;;;;;;;;;;5021899;28;20569;-83
2023/05/15 12:00:47;;;;;;;4.72;4.20;;;;;;;;;;5013525;28;20045;-83
2023/05/15 12:03:23;;;;;;;12.95;4.30;;;;;;;;;;5039626;28;20030;-82
2023/05/15 12:05:50;;;;;;;3.83;3.33;;;;;;;;;;5026306;28;20025;-82
2023/05/15 12:08:16;;;;;;;3.70;3.38;;;;;;;;;;5025180;28;20076;-82
2023/05/15 12:10:44;;;;;;;6.00;2.33;;;;;;;;;;5040555;28;20334;-82
2023/05/15 12:13:11;;;;;;;3.08;2.53;;;;;;;;;;5022378;28;20041;-82
2023/05/15 12:15:45;;;;;;;2.58;2.15;;;;;;;;;;5023431;28;20057;-82
2023/05/15 12:18:11;;;;;;;2.78;2.20;;;;;;;;;;5033870;28;20055;-82
2023/05/15 12:20:38;;;;;;;3.47;2.30;;;;;;;;;;5024224;28;20105;-82
2023/05/15 12:23:06;;;;;;;2.92;2.70;;;;;;;;;;5024176;28;20539;-82
2023/05/15 12:25:35;;;;;;;3.03;2.33;;;;;;;;;;5016105;28;20323;-82
2023/05/15 12:28:03;;;;;;;3.85;2.60;;;;;;;;;;5019747;28;20040;-81
2023/05/15 12:30:33;;;;;;;2.00;1.90;;;;;;;;;;5024344;28;20036;-80
2023/05/15 12:33:03;;;;;;;3.00;2.70;;;;;;;;;;5019892;28;20029;-80
2023/05/15 12:35:31;;;;;;;2.55;2.30;;;;;;;;;;5025700;28;20093;-80
2023/05/15 12:37:56;;;;;;;2.83;2.25;;;;;;;;;;5025985;28;20133;-81
2023/05/15 12:40:22;;;;;;;2.88;2.58;;;;;;;;;;5039040;28;20528;-82
2023/05/15 12:42:53;;;;;;;9.25;2.30;;;;;;;;;;5021519;28;20040;-80
2023/05/15 12:45:19;;;;;;;3.70;2.40;;;;;;;;;;5023120;28;20029;-80
2023/05/15 12:47:46;;;;;;;2.10;2.00;;;;;;;;;;5033820;28;20567;-80
2023/05/15 12:50:19;;;;;;;2.75;1.63;;;;;;;;;;5023665;28;20043;-80
2023/05/15 12:52:54;;;;;;;2.25;1.70;;;;;;;;;;5031944;28;20400;-81
2023/05/15 12:55:30;;;;;;;6.07;1.90;;;;;;;;;;5032338;28;20053;-81
2023/05/15 12:57:57;;;;;;;1.70;1.60;;;;;;;;;;5021750;28;20532;-81
2023/05/15 13:00:23;;;;;;;5.32;1.90;;;;;;;;;;5037888;28;20049;-80
2023/05/15 13:02:51;;;;;;;2.20;1.90;;;;;;;;;;5038042;28;20034;-79
2023/05/15 13:05:16;;;;;;;1.90;1.80;;;;;;;;;;5023336;28;20105;-80
2023/05/15 13:07:43;;;;;;;1.80;1.70;;;;;;;;;;5039616;28;20072;-83
2023/05/15 13:10:10;;;;;;;4.90;1.70;;;;;;;;;;5038621;28;20601;-80
2023/05/15 13:12:41;;;;;;;1.63;1.52;;;;;;;;;;5015735;28;20034;-80
2023/05/15 13:15:07;;;;;;;1.60;1.50;;;;;;;;;;5033837;28;20052;-79
2023/05/15 13:17:38;;;;;;;1.60;1.50;;;;;;;;;;5021115;28;20026;-81
2023/05/15 13:20:05;;;;;;;2.13;1.42;;;;;;;;;;5037749;28;20038;-81
2023/05/15 13:22:31;;;;;;;2.78;2.45;;;;;;;;;;5035933;28;20073;-81
2023/05/15 13:24:56;;;;;;;2.15;1.95;;;;;;;;;;5035251;28;20061;-83
2023/05/15 13:27:21;;;;;;;1.98;1.63;;;;;;;;;;5020369;28;20030;-81
2023/05/15 13:29:46;;;;;;;1.85;1.75;;;;;;;;;;5039574;28;20029;-80
2023/05/15 13:32:12;;;;;;;2.17;1.70;;;;;;;;;;5020496;28;20121;-80
2023/05/15 13:34:37;;;;;;;1.98;1.88;;;;;;;;;;5021405;28;20033;-81
2023/05/15 13:37:02;;;;;;;8.35;1.85;;;;;;;;;;5036014;28;20564;-81
2023/05/15 13:39:28;;;;;;;2.28;1.67;;;;;;;;;;5019035;28;20038;-80
2023/05/15 13:41:53;;;;;;;2.78;1.75;;;;;;;;;;5035362;28;20062;-81
2023/05/15 13:44:18;;;;;;;2.08;1.95;;;;;;;;;;5021383;28;20431;-81
2023/05/15 13:46:45;;;;;;;2.40;2.05;;;;;;;;;;5035630;28;20055;-80
2023/05/15 13:49:10;;;;;;;1.83;1.70;;;;;;;;;;5022187;28;20079;-81
2023/05/15 13:51:35;;;;;;;4.95;1.50;;;;;;;;;;5039499;28;20459;-81
2023/05/15 13:54:01;;;;;;;2.63;1.70;;;;;;;;;;5038917;28;20491;-81
2023/05/15 13:56:26;;;;;;;4.57;1.50;;;;;;;;;;5022878;28;20548;-81
2023/05/15 13:58:51;;;;;;;1.60;1.50;;;;;;;;;;5015195;28;20392;-81
2023/05/15 14:01:17;;;;;;;4.32;1.40;;;;;;;;;;5041920;28;20048;-81
2023/05/15 14:03:42;;;;;;;2.72;1.55;;;;;;;;;;5026271;28;20046;-81
2023/05/15 14:06:08;;;;;;;1.75;1.50;;;;;;;;;;5022506;28;20021;-81
2023/05/15 14:08:33;;;;;;;3.70;1.60;;;;;;;;;;5044712;28;20121;-81
2023/05/15 14:10:58;;;;;;;1.60;1.50;;;;;;;;;;5044933;28;20045;-81
2023/05/15 14:13:24;;;;;;;3.47;1.60;;;;;;;;;;5029057;28;20045;-81
2023/05/15 14:15:49;;;;;;;1.85;1.70;;;;;;;;;;5036534;28;20637;-82
2023/05/15 14:18:14;;;;;;;2.00;1.50;;;;;;;;;;5027762;28;20087;-81
2023/05/15 14:20:40;;;;;;;1.70;1.60;;;;;;;;;;5030039;28;20029;-81
2023/05/15 14:23:05;;;;;;;2.17;1.70;;;;;;;;;;5029943;28;20042;-82
2023/05/15 14:25:30;;;;;;;1.70;1.60;;;;;;;;;;5045794;28;20038;-82
2023/05/15 14:27:56;;;;;;;2.75;1.50;;;;;;;;;;5040076;28;20052;-82
2023/05/15 14:30:21;;;;;;;1.70;1.60;;;;;;;;;;5041372;28;20060;-81
2023/05/15 14:32:47;;;;;;;6.40;1.60;;;;;;;;;;5042796;28;20096;-81